Time;durP1;ratioP1;P1;durP2;ratioP2;P2;SDS_P1;SDS_P2;PMS_P1;PMS_P2;Temp;Humidity;BMP_temperature;BMP_pressure;BME280_temperature;BME280_humidity;BME280_pressure;Samples;Min_cycle;Max_cycle;Signal;HPM_P1;HPM_P2
2023/10/15 00:00:51;;;;;;;7.05;1.27;;;8.50;99.90;;;7.80;100.00;102002.50;4168908;28;20033;-72
2023/10/15 00:02:53;;;;;;;5.07;1.58;;;8.50;99.90;;;7.80;100.00;102002.50;4168706;28;20037;-72
2023/10/15 00:04:54;;;;;;;3.83;0.90;;;8.50;99.90;;;7.80;100.00;102004.28;4154460;28;20037;-72
2023/10/15 00:06:55;;;;;;;4.32;0.90;;;8.50;99.90;;;7.81;100.00;102000.72;4152134;28;20516;-72
2023/10/15 00:08:56;;;;;;;3.17;0.73;;;8.50;99.90;;;7.79;100.00;102002.63;4154315;28;20405;-72
2023/10/15 00:10:57;;;;;;;5.47;0.95;;;8.50;99.90;;;7.79;100.00;102018.38;4140697;28;20034;-72
2023/10/15 00:12:59;;;;;;;9.85;1.50;;;8.50;99.90;;;7.78;100.00;102012.28;4153252;28;20034;-72
2023/10/15 00:15:00;;;;;;;2.97;0.85;;;8.50;99.90;;;7.78;100.00;102017.53;4168600;28;20180;-72
2023/10/15 00:17:05;;;;;;;5.95;1.42;;;8.50;99.90;;;7.76;100.00;102008.06;4168684;28;20025;-72
2023/10/15 00:19:12;;;;;;;2.95;0.73;;;8.50;99.90;;;7.78;100.00;102020.16;4153457;28;20057;-72
2023/10/15 00:21:14;;;;;;;6.72;0.70;;;8.50;99.90;;;7.77;100.00;102010.59;4155809;28;20034;-72
2023/10/15 00:23:15;;;;;;;3.55;1.02;;;8.50;99.90;;;7.78;100.00;102007.03;4155403;28;20030;-72
2023/10/15 00:25:20;;;;;;;7.68;1.00;;;8.50;99.90;;;7.76;100.00;102002.81;4155531;28;20037;-72
2023/10/15 00:27:21;;;;;;;4.60;1.35;;;8.50;99.90;;;7.80;100.00;102009.53;4138487;28;20481;-72
2023/10/15 00:29:24;;;;;;;3.25;0.80;;;8.50;99.90;;;7.77;100.00;102007.97;4155624;28;20480;-72
2023/10/15 00:31:25;;;;;;;4.43;1.30;;;8.50;99.90;;;7.73;100.00;102009.13;4155496;28;20041;-72
2023/10/15 00:33:27;;;;;;;6.72;1.02;;;8.50;99.90;;;7.73;100.00;102006.50;4137953;28;20027;-72
2023/10/15 00:35:33;;;;;;;7.82;2.08;;;8.40;99.90;;;7.69;100.00;102007.66;4154997;28;20039;-72
2023/10/15 00:37:35;;;;;;;2.72;1.25;;;8.40;99.90;;;7.70;100.00;102014.59;4138699;28;20022;-72
2023/10/15 00:39:41;;;;;;;4.53;1.08;;;8.40;99.90;;;7.68;100.00;102008.59;4155443;28;20026;-72
2023/10/15 00:41:45;;;;;;;4.22;0.63;;;8.40;99.90;;;7.67;100.00;102004.31;4155369;28;20488;-72
2023/10/15 00:43:59;;;;;;;4.93;1.17;;;8.40;99.90;;;7.66;100.00;102009.66;4155267;28;20400;-72
2023/10/15 00:46:04;;;;;;;4.65;1.52;;;8.40;99.90;;;7.67;100.00;102009.56;4137660;28;20065;-72
2023/10/15 00:50:08;;;;;;;5.82;1.35;;;8.40;99.90;;;7.67;100.00;102009.56;4147985;28;20112;-72
2023/10/15 00:52:10;;;;;;;7.38;1.70;;;8.40;99.90;;;7.64;100.00;102007.16;4171418;28;20030;-72
2023/10/15 00:54:16;;;;;;;5.93;1.20;;;8.40;99.90;;;7.65;100.00;102008.81;4153981;28;20093;-72
2023/10/15 00:56:23;;;;;;;5.43;1.35;;;8.40;99.90;;;7.63;100.00;102013.34;4154291;28;20053;-72
2023/10/15 00:58:53;;;;;;;6.25;1.80;;;8.40;99.90;;;7.64;100.00;102012.41;4153795;28;20465;-72
2023/10/15 01:00:54;;;;;;;3.05;1.00;;;8.40;99.90;;;7.62;100.00;102008.19;4171429;28;20022;-72
2023/10/15 01:02:58;;;;;;;5.57;1.13;;;8.40;99.90;;;7.63;100.00;102013.34;4153825;28;20030;-72
2023/10/15 01:05:00;;;;;;;5.30;1.00;;;8.40;99.90;;;7.61;100.00;102009.16;4171217;28;20728;-72
2023/10/15 01:09:30;;;;;;;3.85;1.10;;;8.40;99.90;;;7.59;100.00;102011.84;4177897;28;20041;-72
2023/10/15 01:11:31;;;;;;;5.25;1.17;;;8.40;99.90;;;7.61;100.00;102017.88;4171044;28;20045;-72
2023/10/15 01:13:32;;;;;;;4.70;1.10;;;8.30;99.90;;;7.62;100.00;102013.44;4165413;28;20076;-72
2023/10/15 01:15:35;;;;;;;5.40;0.80;;;8.40;99.90;;;7.61;100.00;102024.91;4154847;28;20030;-72
2023/10/15 01:17:39;;;;;;;7.50;0.65;;;8.30;99.90;;;7.58;100.00;102015.44;4137851;28;20050;-72
2023/10/15 01:19:40;;;;;;;7.03;1.08;;;8.30;99.90;;;7.56;100.00;102017.31;4163258;28;20086;-72
2023/10/15 01:21:57;;;;;;;1.95;0.70;;;8.30;99.90;;;7.56;100.00;102014.69;4154507;28;20026;-72
2023/10/15 01:24:04;;;;;;;4.60;1.00;;;8.30;99.90;;;7.53;100.00;102012.28;4156319;28;20155;-72
2023/10/15 01:26:16;;;;;;;5.45;1.00;;;8.30;99.90;;;7.49;100.00;102010.81;4155446;28;20037;-72
2023/10/15 01:28:17;;;;;;;4.03;1.17;;;8.30;99.90;;;7.46;100.00;102008.41;4138681;28;20393;-72
2023/10/15 01:30:17;;;;;;;2.33;1.05;;;8.20;99.90;;;7.50;100.00;102016.91;4153248;28;20029;-72
2023/10/15 01:32:19;;;;;;;5.50;1.60;;;8.20;99.90;;;7.47;100.00;102010.06;4137144;28;20037;-72
2023/10/15 01:34:22;;;;;;;4.70;1.15;;;8.20;99.90;;;7.46;100.00;102008.41;4154584;28;20106;-72
2023/10/15 01:36:29;;;;;;;6.38;1.27;;;8.20;99.90;;;7.44;100.00;102009.44;4154307;28;20022;-72
2023/10/15 01:38:30;;;;;;;6.63;1.20;;;8.20;99.90;;;7.43;100.00;102013.88;4154399;28;20034;-72
2023/10/15 01:40:39;;;;;;;3.70;1.05;;;8.20;99.90;;;7.42;100.00;102013.97;4136788;28;20073;-72
2023/10/15 01:42:40;;;;;;;7.85;1.20;;;8.20;99.90;;;7.37;100.00;102010.81;4154398;28;20030;-72
2023/10/15 01:44:47;;;;;;;8.23;1.45;;;8.10;99.90;;;7.38;100.00;102015.13;4137075;28;20038;-72
2023/10/15 01:46:48;;;;;;;6.15;1.30;;;8.10;99.90;;;7.34;100.00;102011.03;4154429;28;20026;-72
2023/10/15 01:48:50;;;;;;;6.57;1.48;;;8.10;99.90;;;7.34;100.00;102011.88;4136701;28;20026;-72
2023/10/15 01:50:51;;;;;;;6.78;1.00;;;8.10;99.90;;;7.31;100.00;102012.09;4154201;28;20110;-72
2023/10/15 01:53:01;;;;;;;8.32;1.35;;;8.10;99.90;;;7.30;100.00;102007.75;4154291;28;20112;-72
2023/10/15 01:55:03;;;;;;;3.08;0.90;;;8.10;99.90;;;7.27;100.00;102007.13;4137592;28;20041;-72
2023/10/15 01:57:09;;;;;;;11.65;1.33;;;8.00;99.90;;;7.25;100.00;102012.50;4154250;28;20033;-72
2023/10/15 01:59:09;;;;;;;6.00;1.27;;;8.00;99.90;;;7.23;100.00;102007.34;4154183;28;20044;-72
2023/10/15 02:01:31;;;;;;;5.82;1.00;;;8.00;99.90;;;7.23;100.00;101998.63;4156366;28;20038;-72
2023/10/15 02:03:32;;;;;;;8.68;0.95;;;8.00;99.90;;;7.23;100.00;102006.50;4125827;28;20393;-72
2023/10/15 02:05:42;;;;;;;5.38;0.85;;;8.00;99.90;;;7.24;100.00;102001.16;4153855;28;20030;-72
2023/10/15 02:07:44;;;;;;;4.28;1.20;;;8.00;99.90;;;7.28;100.00;102006.19;4137734;28;20572;-72
2023/10/15 02:09:46;;;;;;;4.15;1.80;;;8.00;99.90;;;7.27;100.00;102002.72;4153720;28;20048;-72
2023/10/15 02:11:47;;;;;;;2.97;1.20;;;8.00;99.90;;;7.27;100.00;102005.34;4162589;28;20041;-72
2023/10/15 02:13:50;;;;;;;4.65;1.00;;;8.00;99.90;;;7.28;100.00;102007.03;4161929;28;20044;-72
2023/10/15 02:15:50;;;;;;;4.05;0.80;;;8.00;99.90;;;7.29;100.00;102013.13;4170296;28;20056;-72
2023/10/15 02:17:54;;;;;;;4.07;1.30;;;8.00;99.90;;;7.27;100.00;102005.34;4170130;28;20017;-72
2023/10/15 02:19:55;;;;;;;4.00;1.02;;;8.00;99.90;;;7.27;100.00;102005.34;4152859;28;20037;-72
2023/10/15 02:21:57;;;;;;;7.18;1.08;;;8.00;99.90;;;7.27;100.00;102005.34;4152450;28;20034;-72
2023/10/15 02:24:07;;;;;;;4.47;1.08;;;8.00;99.90;;;7.30;100.00;102002.50;4152526;28;20026;-72
2023/10/15 02:26:08;;;;;;;4.68;1.02;;;8.00;99.90;;;7.28;100.00;102004.41;4165965;28;20064;-72
2023/10/15 02:28:09;;;;;;;7.90;1.00;;;8.00;99.90;;;7.27;100.00;102000.09;4153707;28;20030;-72
2023/10/15 02:30:12;;;;;;;6.85;1.38;;;8.00;99.90;;;7.25;100.00;101994.13;4155749;28;20022;-72
2023/10/15 02:32:34;;;;;;;3.67;1.15;;;8.00;99.90;;;7.25;100.00;101999.38;4136533;28;20573;-72
2023/10/15 02:34:44;;;;;;;6.15;1.77;;;8.00;99.90;;;7.24;100.00;101992.44;4153112;28;20523;-72
2023/10/15 02:36:46;;;;;;;6.65;1.20;;;8.00;99.90;;;7.27;100.00;101997.47;4153363;28;20029;-72
2023/10/15 02:38:53;;;;;;;10.82;2.17;;;8.00;99.90;;;7.25;100.00;101999.38;4153511;28;20081;-72
2023/10/15 02:43:06;;;;;;;6.00;1.10;;;8.00;99.90;;;7.26;100.00;101997.59;4161880;28;20022;-72
2023/10/15 02:45:07;;;;;;;6.53;1.20;;;8.00;99.90;;;7.27;100.00;101994.00;4153450;28;20026;-72
2023/10/15 02:47:31;;;;;;;3.03;0.85;;;8.00;99.90;;;7.24;100.00;101992.44;4153296;28;20462;-72
2023/10/15 02:49:48;;;;;;;3.63;1.75;;;8.00;99.90;;;7.23;100.00;101998.63;4157770;28;20500;-72
2023/10/15 02:51:49;;;;;;;7.57;1.10;;;8.00;99.90;;;7.22;100.00;101989.09;4156023;28;20041;-72
2023/10/15 02:54:09;;;;;;;5.47;1.88;;;8.00;99.90;;;7.20;100.00;101996.19;4135846;28;20568;-72
2023/10/15 02:56:10;;;;;;;7.05;1.25;;;8.00;99.90;;;7.20;100.00;101998.81;4153174;28;20034;-72
2023/10/15 02:58:16;;;;;;;5.10;0.80;;;8.00;99.90;;;7.17;100.00;101999.03;4153208;28;20382;-72
2023/10/15 03:00:28;;;;;;;4.22;0.80;;;8.00;99.90;;;7.15;100.00;101996.53;4152096;28;20023;-72
2023/10/15 03:02:41;;;;;;;3.20;1.08;;;7.90;99.90;;;7.13;100.00;102001.03;4153205;28;20076;-72
2023/10/15 03:04:48;;;;;;;5.53;0.85;;;7.90;99.90;;;7.09;100.00;102001.34;4153236;28;20036;-72
2023/10/15 03:06:49;;;;;;;8.50;0.85;;;7.90;99.90;;;7.08;100.00;101999.66;4153024;28;20077;-72
2023/10/15 03:08:51;;;;;;;5.00;1.15;;;7.90;99.90;;;7.08;100.00;102005.75;4135796;28;20027;-72
2023/10/15 03:10:57;;;;;;;2.33;0.57;;;7.90;99.90;;;7.08;100.00;101995.25;4158641;28;20030;-72
2023/10/15 03:12:59;;;;;;;2.13;0.70;;;7.90;99.90;;;7.05;100.00;101990.19;4153801;28;20058;-72
2023/10/15 03:15:00;;;;;;;3.47;0.98;;;7.80;99.90;;;7.04;100.00;102004.28;4151835;28;20166;-72
2023/10/15 03:17:01;;;;;;;3.22;0.90;;;7.80;99.90;;;7.00;100.00;101992.31;4169391;28;20037;-72
2023/10/15 03:19:24;;;;;;;3.92;0.98;;;7.80;99.90;;;7.00;100.00;102005.41;4151607;28;20018;-72
2023/10/15 03:21:30;;;;;;;2.78;0.65;;;7.80;99.90;;;6.97;100.00;102008.25;4152819;28;20036;-72
2023/10/15 03:23:31;;;;;;;4.18;0.70;;;7.80;99.90;;;6.96;100.00;102003.94;4136039;28;20109;-72
2023/10/15 03:25:34;;;;;;;4.07;1.00;;;7.70;99.90;;;6.96;100.00;102003.13;4152781;28;20112;-72
2023/10/15 03:27:36;;;;;;;3.33;1.00;;;7.70;99.90;;;6.94;100.00;101997.13;4152610;28;20034;-72
2023/10/15 03:29:37;;;;;;;5.05;0.85;;;7.70;99.90;;;6.92;100.00;101996.38;4153923;28;20112;-73
2023/10/15 03:31:38;;;;;;;4.15;1.00;;;7.70;99.90;;;6.91;100.00;102002.56;4135142;28;20081;-72
2023/10/15 03:33:39;;;;;;;8.48;1.80;;;7.70;99.90;;;6.88;100.00;101989.66;4152695;28;20463;-72
2023/10/15 03:35:45;;;;;;;4.13;1.10;;;7.70;99.90;;;6.86;100.00;101996.78;4152314;28;20104;-72
2023/10/15 03:37:46;;;;;;;3.63;0.70;;;7.70;99.90;;;6.81;100.00;101985.78;4152763;28;20137;-72
2023/10/15 03:39:56;;;;;;;3.58;0.80;;;7.60;99.90;;;6.79;100.00;101996.34;4141732;28;20022;-72
2023/10/15 03:42:09;;;;;;;4.72;1.20;;;7.60;99.90;;;6.74;100.00;101985.34;4144855;28;20026;-72
2023/10/15 03:44:14;;;;;;;4.50;1.20;;;7.60;99.90;;;6.75;100.00;101997.47;4140968;28;20612;-72
2023/10/15 03:46:20;;;;;;;3.95;0.85;;;7.50;99.90;;;6.73;100.00;102003.78;4169028;28;20029;-72
2023/10/15 03:48:36;;;;;;;3.80;0.80;;;7.50;99.90;;;6.71;100.00;102003.88;4168925;28;20052;-72
2023/10/15 03:50:53;;;;;;;2.17;0.80;;;7.50;99.90;;;6.69;100.00;102003.13;4152919;28;20056;-72
2023/10/15 03:52:56;;;;;;;3.92;1.45;;;7.50;99.90;;;6.66;100.00;102000.69;4167977;28;20159;-72
2023/10/15 03:54:57;;;;;;;3.95;0.93;;;7.50;99.90;;;6.65;100.00;102005.13;4151515;28;20034;-72
2023/10/15 03:57:00;;;;;;;4.13;1.13;;;7.50;99.90;;;6.61;100.00;102008.88;4168767;28;20021;-72
2023/10/15 03:59:02;;;;;;;6.07;1.30;;;7.40;99.90;;;6.60;100.00;101999.31;4168780;28;20067;-72
2023/10/15 04:01:15;;;;;;;3.30;1.42;;;7.40;99.90;;;6.55;100.00;102004.03;4141192;28;20121;-72
2023/10/15 04:03:25;;;;;;;2.22;0.60;;;7.40;99.90;;;6.50;100.00;102007.91;4152172;28;20029;-72
2023/10/15 04:05:28;;;;;;;2.65;0.60;;;7.40;99.90;;;6.49;100.00;102012.28;4152154;28;20509;-72
2023/10/15 04:07:31;;;;;;;3.13;0.98;;;7.30;99.90;;;6.46;100.00;102004.63;4161844;28;20067;-72
2023/10/15 04:09:34;;;;;;;3.95;0.90;;;7.30;99.90;;;6.43;100.00;102010.06;4142085;28;20091;-72
2023/10/15 04:11:42;;;;;;;2.42;0.63;;;7.20;99.90;;;6.42;100.00;102012.81;4152290;28;20563;-72
2023/10/15 04:13:45;;;;;;;4.03;0.80;;;7.20;99.90;;;6.39;100.00;102013.81;4158136;28;20554;-72
2023/10/15 04:15:46;;;;;;;4.88;0.93;;;7.20;99.90;;;6.35;100.00;102014.97;4168541;28;20052;-72
2023/10/15 04:17:51;;;;;;;8.00;1.55;;;7.20;99.90;;;6.31;100.00;102018.72;4168536;28;20021;-72
2023/10/15 04:19:52;;;;;;;7.95;1.45;;;7.20;99.90;;;6.29;100.00;102004.88;4151413;28;20045;-72
2023/10/15 04:21:59;;;;;;;7.55;1.05;;;7.10;99.90;;;6.26;100.00;102012.94;4168433;28;20022;-72
2023/10/15 04:24:00;;;;;;;3.65;0.80;;;7.10;99.90;;;6.26;100.00;102019.94;4168519;28;20400;-72
2023/10/15 04:26:14;;;;;;;6.63;0.93;;;7.10;99.90;;;6.16;100.00;102003.13;4168378;28;20036;-72
2023/10/15 04:28:19;;;;;;;2.10;0.85;;;7.00;99.90;;;6.13;100.00;102010.25;4168635;28;20692;-72
2023/10/15 04:30:20;;;;;;;3.22;1.10;;;7.00;99.90;;;6.14;100.00;102013.69;4151446;28;20474;-72
2023/10/15 04:34:29;;;;;;;2.72;0.70;;;6.90;99.90;;;6.11;100.00;102014.75;4150744;28;20030;-72
2023/10/15 04:36:40;;;;;;;2.28;0.85;;;6.90;99.90;;;6.10;100.00;102020.06;4161173;28;20061;-72
2023/10/15 04:38:41;;;;;;;5.47;1.02;;;6.90;99.90;;;6.07;100.00;102015.00;4136101;28;20022;-72
2023/10/15 04:42:59;;;;;;;5.63;0.80;;;6.90;99.90;;;5.98;100.00;102021.69;4152244;28;20030;-72
2023/10/15 04:45:00;;;;;;;7.03;1.13;;;6.80;99.90;;;5.96;100.00;102013.06;4152143;28;20029;-72
2023/10/15 04:47:09;;;;;;;3.53;0.90;;;6.80;99.90;;;5.94;100.00;102017.56;4134545;28;20026;-72
2023/10/15 04:49:10;;;;;;;4.18;1.15;;;6.70;99.90;;;5.92;100.00;102023.81;4152543;28;20080;-72
2023/10/15 04:51:14;;;;;;;7.47;1.00;;;6.80;99.90;;;5.91;100.00;102022.16;4160273;28;20026;-72
2023/10/15 04:55:22;;;;;;;6.25;1.40;;;6.70;99.90;;;5.90;100.00;102015.22;4151925;28;20026;-72
2023/10/15 04:57:24;;;;;;;3.80;1.00;;;6.70;99.90;;;5.93;100.00;102021.13;4134614;28;20096;-72
2023/10/15 04:59:25;;;;;;;4.80;0.95;;;6.70;99.90;;;5.95;100.00;102023.63;4136946;28;20031;-72
2023/10/15 05:01:26;;;;;;;1.95;0.70;;;6.70;99.90;;;5.93;100.00;102017.66;4156179;28;20026;-72
2023/10/15 05:03:27;;;;;;;2.63;1.10;;;6.70;99.90;;;5.91;100.00;102025.59;4134448;28;20486;-72
2023/10/15 05:05:27;;;;;;;2.20;1.08;;;6.70;99.90;;;5.89;100.00;102027.47;4154576;28;20122;-72
2023/10/15 05:07:28;;;;;;;4.15;1.17;;;6.70;99.90;;;5.90;100.00;102020.47;4155258;28;20045;-72
2023/10/15 05:09:31;;;;;;;3.75;1.05;;;6.70;99.90;;;5.91;100.00;102022.16;4157610;28;20037;-72
2023/10/15 05:11:31;;;;;;;5.35;1.65;;;6.70;99.90;;;5.91;100.00;102030.84;4155283;28;20038;-72
2023/10/15 05:13:32;;;;;;;3.13;1.15;;;6.70;99.90;;;5.91;100.00;102020.34;4160456;28;20079;-72
2023/10/15 05:15:33;;;;;;;3.28;1.08;;;6.70;99.90;;;5.88;100.00;102019.72;4169886;28;20070;-72
2023/10/15 05:17:34;;;;;;;3.60;0.90;;;6.70;99.90;;;5.89;100.00;102018.78;4153662;28;20018;-72
2023/10/15 05:19:35;;;;;;;5.90;1.77;;;6.70;99.90;;;5.89;100.00;102014.38;4168878;28;20028;-72
2023/10/15 05:21:36;;;;;;;1.23;0.60;;;6.70;99.90;;;5.88;100.00;102019.72;4154565;28;20421;-72
2023/10/15 05:23:37;;;;;;;3.42;1.02;;;6.70;99.90;;;5.89;100.00;102022.25;4154615;28;20025;-72
2023/10/15 05:25:39;;;;;;;3.38;0.90;;;6.70;99.90;;;5.86;100.00;102025.03;4154743;28;20033;-72
2023/10/15 05:27:40;;;;;;;3.72;1.42;;;6.70;99.90;;;5.87;100.00;102021.50;4154649;28;20026;-72
2023/10/15 05:29:41;;;;;;;5.13;1.05;;;6.70;99.90;;;5.87;100.00;102025.91;4158650;28;20025;-72
2023/10/15 05:31:43;;;;;;;7.80;1.38;;;6.70;99.90;;;5.85;100.00;102014.66;4145847;28;20094;-72
2023/10/15 05:33:44;;;;;;;2.63;1.15;;;6.70;99.90;;;5.87;100.00;102021.50;4159974;28;20025;-72
2023/10/15 05:35:49;;;;;;;2.45;1.08;;;6.70;99.90;;;5.88;100.00;102019.72;4155977;28;20022;-72
2023/10/15 05:37:50;;;;;;;3.90;1.10;;;6.70;99.90;;;5.87;100.00;102024.13;4137452;28;20034;-72
2023/10/15 05:39:50;;;;;;;3.95;1.10;;;6.70;99.90;;;5.89;100.00;102018.78;4142120;28;20021;-72
2023/10/15 05:41:52;;;;;;;3.42;0.98;;;6.70;99.90;;;5.92;100.00;102026.44;4159370;28;20030;-72
2023/10/15 05:43:53;;;;;;;2.50;0.88;;;6.70;99.90;;;5.91;100.00;102030.03;4154300;28;20077;-72
2023/10/15 05:45:54;;;;;;;5.15;0.90;;;6.70;99.90;;;5.82;100.00;102026.16;4154513;28;20061;-72
2023/10/15 05:47:55;;;;;;;1.55;0.77;;;6.70;99.90;;;5.71;100.00;102030.34;4154474;28;20022;-72
2023/10/15 05:49:56;;;;;;;5.40;1.00;;;6.60;99.90;;;5.59;100.00;102030.16;4159897;28;20029;-72
2023/10/15 05:51:58;;;;;;;1.25;0.77;;;6.50;99.90;;;5.50;100.00;102025.47;4156205;28;20026;-72
2023/10/15 05:54:00;;;;;;;1.75;0.73;;;6.40;99.90;;;5.43;100.00;102026.78;4154308;28;20025;-72
2023/10/15 05:56:01;;;;;;;1.95;1.10;;;6.30;99.90;;;5.38;100.00;102031.44;4136774;28;20030;-72
2023/10/15 05:58:02;;;;;;;4.30;1.17;;;6.30;99.90;;;5.30;100.00;102027.59;4157420;28;20030;-72
2023/10/15 06:00:19;;;;;;;2.33;1.00;;;6.20;99.90;;;5.22;100.00;102020.22;4169658;28;20026;-72
2023/10/15 06:02:19;;;;;;;3.72;0.75;;;6.10;99.90;;;5.17;100.00;102013.59;4140773;28;20050;-72
2023/10/15 06:04:20;;;;;;;3.92;0.82;;;6.10;99.90;;;5.14;100.00;102021.59;4160893;28;20033;-72
2023/10/15 06:06:21;;;;;;;4.07;0.90;;;6.00;99.90;;;5.10;100.00;102020.94;4153697;28;20497;-72
2023/10/15 06:08:22;;;;;;;1.48;0.70;;;6.00;99.90;;;5.07;100.00;102017.66;4153900;28;20026;-72
2023/10/15 06:10:23;;;;;;;2.78;1.25;;;6.00;99.90;;;5.03;100.00;102016.97;4157240;28;20022;-72
2023/10/15 06:12:24;;;;;;;2.08;0.80;;;5.90;99.90;;;4.99;100.00;102008.47;4153690;28;20040;-72
2023/10/15 06:14:28;;;;;;;1.77;0.90;;;5.90;99.90;;;4.94;100.00;102007.06;4166790;28;20057;-72
2023/10/15 06:16:28;;;;;;;3.40;0.90;;;5.80;99.90;;;4.93;100.00;102023.66;4152415;28;20022;-73
2023/10/15 06:18:30;;;;;;;4.75;1.38;;;5.80;99.90;;;4.87;100.00;102018.78;4170171;28;20516;-72
2023/10/15 06:20:31;;;;;;;1.50;0.93;;;5.80;99.90;;;4.86;100.00;102017.13;4148557;28;20022;-72
2023/10/15 06:22:31;;;;;;;4.30;1.00;;;5.70;99.90;;;4.81;100.00;102016.53;4157091;28;20078;-72
2023/10/15 06:24:32;;;;;;;1.92;0.88;;;5.70;99.90;;;4.83;100.00;102018.16;4136261;28;20026;-72
2023/10/15 06:26:33;;;;;;;2.97;1.05;;;5.70;99.90;;;4.83;100.00;102020.75;4136398;28;20027;-72
2023/10/15 06:28:34;;;;;;;4.22;1.08;;;5.70;99.90;;;4.86;100.00;102024.97;4153669;28;20033;-72
2023/10/15 06:30:35;;;;;;;5.63;1.10;;;5.70;99.90;;;4.92;100.00;102016.78;4153614;28;20037;-72
2023/10/15 06:32:36;;;;;;;2.28;0.80;;;5.70;99.90;;;4.96;100.00;102020.88;4153444;28;20551;-72
2023/10/15 06:34:39;;;;;;;2.85;0.95;;;5.80;99.90;;;4.97;100.00;102015.56;4136129;28;20026;-72
2023/10/15 06:36:40;;;;;;;4.07;1.10;;;5.80;99.90;;;5.01;100.00;102026.72;4136178;28;20046;-72
2023/10/15 06:38:41;;;;;;;2.45;1.00;;;5.90;99.90;;;5.05;100.00;102035.22;4153682;28;20033;-72
2023/10/15 06:40:42;;;;;;;4.25;1.15;;;5.90;99.90;;;5.09;100.00;102040.16;4153301;28;20378;-72
2023/10/15 06:42:44;;;;;;;1.27;0.77;;;5.90;99.90;;;5.11;100.00;102035.69;4136117;28;20053;-72
2023/10/15 06:44:45;;;;;;;3.10;1.38;;;6.00;99.90;;;5.11;100.00;102035.69;4140541;28;20126;-72
2023/10/15 06:46:46;;;;;;;3.53;1.10;;;6.00;99.90;;;5.13;100.00;102049.53;4157794;28;20551;-72
2023/10/15 06:48:48;;;;;;;3.20;1.13;;;5.90;99.90;;;5.14;100.00;102053.81;4153381;28;20030;-72
2023/10/15 06:50:53;;;;;;;2.88;0.70;;;6.00;99.90;;;5.15;100.00;102050.28;4153207;28;20029;-72
2023/10/15 06:52:55;;;;;;;3.30;0.63;;;6.00;99.90;;;5.16;100.00;102040.66;4153179;28;20097;-72
2023/10/15 06:54:56;;;;;;;2.20;0.98;;;6.00;99.90;;;5.22;100.00;102049.00;4135977;28;20509;-72
2023/10/15 06:56:57;;;;;;;1.40;0.80;;;6.00;99.90;;;5.27;100.00;102046.94;4153158;28;20034;-72
2023/10/15 06:58:58;;;;;;;4.93;0.90;;;6.10;99.90;;;5.36;100.00;102045.56;4153288;28;20070;-72
2023/10/15 07:00:59;;;;;;;2.13;1.10;;;6.10;99.90;;;5.42;100.00;102038.19;4153186;28;20092;-72
2023/10/15 07:03:00;;;;;;;3.95;0.73;;;6.20;99.90;;;5.55;100.00;102043.53;4135723;28;20038;-73
2023/10/15 07:05:05;;;;;;;3.75;0.90;;;6.30;99.90;;;5.63;100.00;102049.16;4152775;28;20041;-72
2023/10/15 07:07:06;;;;;;;3.58;0.88;;;6.40;99.90;;;5.71;100.00;102046.03;4135718;28;20041;-72
2023/10/15 07:09:07;;;;;;;3.20;1.67;;;6.50;99.90;;;5.79;100.00;102052.53;4153131;28;20021;-72
2023/10/15 07:11:08;;;;;;;2.10;1.15;;;6.50;99.90;;;5.85;100.00;102051.31;4150410;28;20050;-73
2023/10/15 07:13:10;;;;;;;2.45;0.73;;;6.60;99.90;;;5.90;100.00;102059.75;4148484;28;20026;-72
2023/10/15 07:15:15;;;;;;;3.58;0.85;;;6.70;99.90;;;5.95;100.00;102060.31;4152807;28;20533;-72
2023/10/15 07:17:17;;;;;;;4.18;1.27;;;6.70;99.90;;;6.00;100.00;102063.50;4152793;28;20392;-72
2023/10/15 07:19:18;;;;;;;4.07;1.15;;;6.80;99.90;;;6.08;100.00;102066.47;4161122;28;20551;-72
2023/10/15 07:21:19;;;;;;;8.27;1.02;;;6.80;99.90;;;6.16;100.00;102071.22;4152613;28;20026;-73
2023/10/15 07:23:21;;;;;;;5.38;1.30;;;6.90;99.90;;;6.23;100.00;102064.69;4152747;28;20038;-73
2023/10/15 07:25:24;;;;;;;3.35;0.95;;;7.00;99.90;;;6.30;100.00;102074.66;4152655;28;20033;-72
2023/10/15 07:27:25;;;;;;;2.97;1.07;;;7.10;99.90;;;6.39;100.00;102073.28;4135765;28;20401;-72
2023/10/15 07:29:27;;;;;;;2.75;1.00;;;7.10;99.90;;;6.48;100.00;102081.38;4152898;28;20033;-73
2023/10/15 07:31:28;;;;;;;4.55;1.80;;;7.20;99.90;;;6.54;100.00;102083.59;4152838;28;20028;-72
2023/10/15 07:33:29;;;;;;;5.90;1.15;;;7.30;99.90;;;6.62;100.00;102078.75;4152922;28;20022;-72
2023/10/15 07:35:30;;;;;;;3.10;1.15;;;7.40;99.90;;;6.67;100.00;102076.66;4152464;28;20511;-73
2023/10/15 07:37:31;;;;;;;5.25;0.95;;;7.50;99.90;;;6.76;100.00;102079.63;4135470;28;20042;-73
2023/10/15 07:39:32;;;;;;;3.10;1.10;;;7.60;99.90;;;6.83;100.00;102087.00;4151338;28;20037;-72
2023/10/15 07:41:33;;;;;;;4.20;1.27;;;7.60;99.90;;;6.89;100.00;102083.13;4158513;28;20408;-73
2023/10/15 07:43:34;;;;;;;3.10;1.60;;;7.70;99.90;;;6.94;100.00;102081.06;4155978;28;20054;-73
2023/10/15 07:45:37;;;;;;;4.75;1.10;;;7.70;99.90;;;6.98;100.00;102082.53;4152406;28;20041;-72
2023/10/15 07:47:39;;;;;;;3.78;1.30;;;7.80;99.90;;;7.03;100.00;102083.91;4152707;28;20026;-72
2023/10/15 07:49:39;;;;;;;4.38;1.20;;;7.80;99.90;;;7.09;100.00;102087.91;4152594;28;20060;-73
2023/10/15 07:51:40;;;;;;;2.28;1.10;;;7.90;99.90;;;7.10;100.00;102073.88;4152334;28;20026;-72
2023/10/15 07:53:41;;;;;;;7.50;1.10;;;7.90;99.90;;;7.18;100.00;102079.44;4134989;28;20027;-72
2023/10/15 07:55:42;;;;;;;2.90;1.17;;;8.00;99.90;;;7.24;100.00;102082.50;4152508;28;20489;-72
2023/10/15 07:57:43;;;;;;;2.80;1.00;;;8.00;99.90;;;7.30;100.00;102083.03;4134994;28;20049;-72
2023/10/15 07:59:44;;;;;;;3.72;1.52;;;8.10;99.90;;;7.38;100.00;102091.25;4134994;28;20033;-73
2023/10/15 08:01:47;;;;;;;2.97;1.20;;;8.20;99.90;;;7.44;100.00;102094.28;4134977;28;20026;-72
2023/10/15 08:03:48;;;;;;;4.10;1.20;;;8.20;99.90;;;7.52;100.00;102091.16;4151271;28;20492;-72
2023/10/15 08:05:49;;;;;;;3.53;1.05;;;8.30;99.90;;;7.58;100.00;102088.97;4146110;28;20022;-73
2023/10/15 08:07:52;;;;;;;4.50;1.10;;;8.40;99.90;;;7.67;100.00;102092.75;4168719;28;20036;-73
2023/10/15 08:09:53;;;;;;;3.47;0.88;;;8.50;99.90;;;7.74;100.00;102083.50;4152481;28;20091;-72
2023/10/15 08:11:53;;;;;;;2.00;0.75;;;8.60;99.90;;;7.83;100.00;102093.38;4140044;28;20521;-72
2023/10/15 08:13:54;;;;;;;3.42;1.17;;;8.60;99.90;;;7.90;100.00;102094.63;4160209;28;20092;-72
2023/10/15 08:15:55;;;;;;;3.95;1.25;;;8.70;99.90;;;7.99;100.00;102101.88;4154508;28;20100;-72
2023/10/15 08:17:57;;;;;;;3.08;1.00;;;8.80;99.90;;;8.05;100.00;102084.84;4153844;28;20033;-73
2023/10/15 08:19:58;;;;;;;4.75;0.90;;;8.90;99.90;;;8.16;100.00;102084.94;4160805;28;20033;-72
2023/10/15 08:21:59;;;;;;;3.58;0.80;;;8.90;99.90;;;8.28;100.00;102092.84;4134871;28;20109;-72
2023/10/15 08:24:00;;;;;;;3.78;0.90;;;9.00;99.90;;;8.38;100.00;102090.41;4152144;28;20044;-72
2023/10/15 08:26:01;;;;;;;4.95;0.88;;;9.10;99.90;;;8.49;100.00;102094.88;4147502;28;20045;-72
2023/10/15 08:28:03;;;;;;;3.20;1.63;;;9.20;99.90;;;8.49;100.00;102093.09;4134877;28;20026;-72
2023/10/15 08:30:05;;;;;;;3.17;0.90;;;9.30;99.90;;;8.59;100.00;102094.13;4136414;28;20037;-72
2023/10/15 08:32:06;;;;;;;3.70;1.25;;;9.40;99.90;;;8.66;100.00;102084.00;4152128;28;20053;-72
2023/10/15 08:34:07;;;;;;;4.25;1.17;;;9.50;99.90;;;8.71;100.00;102088.00;4151960;28;20018;-72
2023/10/15 08:36:08;;;;;;;3.38;0.93;;;9.50;99.90;;;8.81;100.00;102080.28;4152173;28;20092;-72
2023/10/15 08:38:09;;;;;;;2.28;0.90;;;9.60;99.90;;;8.88;100.00;102084.13;4152141;28;20037;-72
2023/10/15 08:40:17;;;;;;;2.17;0.80;;;9.70;99.90;;;8.96;100.00;102083.56;4164804;28;20035;-72
2023/10/15 08:42:29;;;;;;;1.55;0.70;;;9.70;99.90;;;9.03;100.00;102085.63;4140348;28;20038;-72
2023/10/15 08:44:33;;;;;;;5.03;0.93;;;9.80;99.90;;;9.13;100.00;102086.63;4138672;28;20410;-72
2023/10/15 08:46:39;;;;;;;1.63;0.93;;;9.90;99.90;;;9.18;100.00;102092.38;4160756;28;20091;-72
2023/10/15 08:48:41;;;;;;;3.83;1.17;;;9.90;99.90;;;9.21;100.00;102096.56;4137792;28;20034;-72
2023/10/15 08:50:45;;;;;;;2.28;0.88;;;10.00;99.90;;;9.22;100.00;102093.84;4165627;28;20052;-72
2023/10/15 08:52:48;;;;;;;2.78;1.00;;;10.00;99.90;;;9.23;100.00;102095.50;4155406;28;20026;-72